Airport View

Enter AWOS ICAO identifier for current METAR.

ex. KFNL

KGYR 260347Z 22007KT 10SM FEW150 SCT220 32/02 A2977 RMK LAST

26 Jun 2019 12:15

Other Area AWOS: KGEU - KLUF - KBXK - KPHX

TAF KLUF 2604/2710 VRB06KT 9999 FEW250 QNH2975INS BECMG 2617/2618 21012KT 9999 SKC QNH2974INS TEMPO 2620/2624 22012G18KT BECMG 2702/2703 VRB06KT 9999 SKC QNH2980INS TX41/2622Z TN20/2613Z